createdAt,value
2022-12-04T00:01:27.140Z,20.35
2022-12-04T00:06:25.723Z,17.40
2022-12-04T00:11:26.734Z,18.80
2022-12-04T00:16:26.653Z,23.13
2022-12-04T00:21:25.510Z,24.15
2022-12-04T00:26:26.254Z,21.27
2022-12-04T00:31:26.324Z,22.48
2022-12-04T00:36:25.579Z,21.08
2022-12-04T00:41:24.748Z,24.08
2022-12-04T00:46:22.502Z,22.33
2022-12-04T00:51:22.618Z,19.02
2022-12-04T01:01:20.140Z,19.20
2022-12-04T01:06:29.626Z,21.63
2022-12-04T01:11:28.441Z,22.33
2022-12-04T01:16:34.792Z,16.63
2022-12-04T01:21:32.058Z,15.93
2022-12-04T01:26:29.573Z,17.00
2022-12-04T01:31:26.900Z,18.40
2022-12-04T01:36:27.139Z,14.82
2022-12-04T01:41:28.161Z,13.93
2022-12-04T01:46:25.467Z,17.77
2022-12-04T01:51:27.650Z,16.15
2022-12-04T01:56:31.561Z,17.63
2022-12-04T02:01:34.115Z,16.25
2022-12-04T02:06:31.469Z,14.30
2022-12-04T02:11:41.570Z,14.77
2022-12-04T02:16:44.013Z,22.13
2022-12-04T02:21:45.959Z,16.10
2022-12-04T02:26:47.195Z,15.48
2022-12-04T02:31:51.698Z,13.57
2022-12-04T02:36:56.005Z,15.35
2022-12-04T02:42:18.754Z,14.68
2022-12-04T02:47:20.372Z,13.38
2022-12-04T02:52:23.078Z,13.85
2022-12-04T02:57:24.834Z,16.17
2022-12-04T03:02:58.821Z,17.15
2022-12-04T03:08:02.407Z,16.38
2022-12-04T03:13:08.128Z,12.60
2022-12-04T03:18:11.968Z,16.50
2022-12-04T03:23:14.725Z,14.30
2022-12-04T03:28:22.615Z,15.13
2022-12-04T03:33:26.804Z,18.55
2022-12-04T03:38:52.650Z,15.48
2022-12-04T03:43:59.510Z,16.33
2022-12-04T03:49:12.067Z,15.07
2022-12-04T03:54:14.983Z,16.63
2022-12-04T03:59:18.049Z,21.48
2022-12-04T04:04:22.371Z,19.55
2022-12-04T04:09:24.697Z,15.80
2022-12-04T04:14:58.279Z,17.00
2022-12-04T04:20:28.705Z,15.10
2022-12-04T04:25:28.159Z,23.87
2022-12-04T04:30:27.741Z,19.07
2022-12-04T04:35:51.207Z,14.63
2022-12-04T04:40:59.060Z,13.98
2022-12-04T04:46:12.509Z,14.68
2022-12-04T04:51:12.867Z,16.60
2022-12-04T04:56:11.167Z,14.97
2022-12-04T05:01:13.667Z,15.45
2022-12-04T05:06:11.495Z,16.60
2022-12-04T05:11:13.877Z,13.30
2022-12-04T05:16:15.219Z,15.18
2022-12-04T05:21:16.764Z,13.40
2022-12-04T05:26:14.849Z,15.88
2022-12-04T05:31:12.587Z,12.38
2022-12-04T05:36:11.803Z,10.68
2022-12-04T05:41:09.347Z,21.43
2022-12-04T05:46:08.869Z,12.80
2022-12-04T05:51:10.523Z,10.00
2022-12-04T05:56:08.570Z,13.57
2022-12-04T06:01:15.262Z,11.43
2022-12-04T06:06:20.989Z,14.40
2022-12-04T06:11:22.390Z,12.07
2022-12-04T06:21:19.220Z,12.05
2022-12-04T06:26:16.655Z,10.90
2022-12-04T06:31:15.941Z,13.23
2022-12-04T06:36:17.404Z,13.02
2022-12-04T06:41:20.076Z,11.52
2022-12-04T06:46:21.669Z,11.73
2022-12-04T06:51:46.530Z,11.05
2022-12-04T06:56:43.836Z,11.68
2022-12-04T07:01:41.463Z,12.85
2022-12-04T07:06:40.030Z,11.95
2022-12-04T07:11:39.266Z,15.70
2022-12-04T07:16:41.237Z,14.65
2022-12-04T07:21:39.127Z,13.27
2022-12-04T07:26:36.415Z,13.68
2022-12-04T07:31:33.801Z,12.43
2022-12-04T07:36:31.322Z,10.40
2022-12-04T07:41:28.606Z,13.30
2022-12-04T07:46:27.811Z,14.00
2022-12-04T07:51:27.708Z,13.17
2022-12-04T07:56:25.243Z,17.90
2022-12-04T08:01:24.276Z,19.67
2022-12-04T08:06:24.366Z,15.38
2022-12-04T08:16:20.405Z,21.73
2022-12-04T08:21:21.180Z,12.25
2022-12-04T08:26:20.301Z,12.85
2022-12-04T08:31:20.868Z,13.93
2022-12-04T08:36:20.602Z,14.85
2022-12-04T08:41:20.095Z,14.40
2022-12-04T08:46:19.000Z,15.35
2022-12-04T08:51:19.798Z,17.37
2022-12-04T08:56:17.028Z,15.13
2022-12-04T09:01:15.501Z,12.68
2022-12-04T09:06:15.661Z,11.30
2022-12-04T09:11:15.883Z,12.48
2022-12-04T09:21:14.060Z,11.20
2022-12-04T09:26:23.334Z,11.75
2022-12-04T09:31:21.515Z,12.18
2022-12-04T09:36:19.692Z,11.88
2022-12-04T09:41:37.636Z,12.60
2022-12-04T09:46:51.428Z,14.05
2022-12-04T09:51:50.822Z,15.25
2022-12-04T09:57:01.867Z,16.83
2022-12-04T10:01:59.153Z,17.17
2022-12-04T10:07:03.096Z,9.73
2022-12-04T10:12:51.019Z,15.45
2022-12-04T10:18:08.555Z,13.18
2022-12-04T10:23:21.732Z,10.43
2022-12-04T10:28:38.013Z,9.68
2022-12-04T10:34:02.349Z,13.43
2022-12-04T10:39:31.110Z,13.05
2022-12-04T10:44:28.635Z,24.55
2022-12-04T10:49:31.018Z,13.52
2022-12-04T10:54:48.861Z,12.63
2022-12-04T10:59:55.348Z,8.52
2022-12-04T11:04:58.691Z,12.20
2022-12-04T11:10:01.706Z,9.55
2022-12-04T11:15:06.112Z,9.75
2022-12-04T11:20:08.526Z,9.80
2022-12-04T11:25:06.119Z,9.55
2022-12-04T11:30:10.408Z,10.63
2022-12-04T11:35:23.420Z,12.05
2022-12-04T11:40:21.547Z,12.45
2022-12-04T11:45:22.128Z,13.77
2022-12-04T11:50:31.641Z,15.75
2022-12-04T11:55:50.085Z,8.73
2022-12-04T12:01:18.477Z,9.40
2022-12-04T12:06:36.525Z,9.73
2022-12-04T12:11:41.281Z,8.07
2022-12-04T12:17:17.256Z,11.73
2022-12-04T12:22:17.195Z,11.18
2022-12-04T12:27:41.889Z,9.98
2022-12-04T12:33:13.016Z,11.68
2022-12-04T12:38:27.527Z,11.43
2022-12-04T12:43:36.151Z,12.00
2022-12-04T12:48:40.399Z,9.73
2022-12-04T12:53:41.512Z,8.70
2022-12-04T12:58:48.866Z,7.78
2022-12-04T13:04:06.244Z,8.20
2022-12-04T13:09:26.600Z,8.85
2022-12-04T13:14:23.799Z,8.85
2022-12-04T13:19:48.057Z,8.30
2022-12-04T13:25:10.783Z,11.50
2022-12-04T13:30:20.672Z,11.68
2022-12-04T13:36:05.870Z,10.05
2022-12-04T13:41:09.814Z,9.35
2022-12-04T13:46:28.629Z,11.70
2022-12-04T13:51:40.550Z,7.93
2022-12-04T13:56:39.452Z,9.38
2022-12-04T14:01:44.954Z,10.02
2022-12-04T14:06:45.285Z,16.52
2022-12-04T14:11:47.612Z,13.38
2022-12-04T14:16:49.319Z,10.25
2022-12-04T14:21:47.846Z,10.97
2022-12-04T14:32:31.184Z,12.77
2022-12-04T14:37:34.471Z,10.27
2022-12-04T14:42:39.484Z,10.48
2022-12-04T14:47:40.294Z,8.35
2022-12-04T14:52:50.834Z,6.45
2022-12-04T14:58:30.142Z,6.65
2022-12-04T15:03:30.197Z,10.30
2022-12-04T15:08:28.115Z,11.63
2022-12-04T15:13:33.775Z,13.02
2022-12-04T15:18:34.267Z,8.73
2022-12-04T15:23:44.527Z,8.63
2022-12-04T15:28:52.624Z,12.40
2022-12-04T15:33:53.849Z,9.02
2022-12-04T15:38:53.969Z,9.13
2022-12-04T15:43:54.051Z,9.23
2022-12-04T15:49:05.724Z,16.90
2022-12-04T15:54:03.941Z,19.40
2022-12-04T15:59:02.405Z,22.25
2022-12-04T16:03:59.902Z,22.80
2022-12-04T16:09:22.345Z,12.10
2022-12-04T16:14:19.713Z,18.27
2022-12-04T16:19:25.811Z,19.00
2022-12-04T16:24:23.604Z,19.83
2022-12-04T16:29:22.966Z,17.05
2022-12-04T16:34:21.621Z,11.77
2022-12-04T16:39:19.147Z,11.20
2022-12-04T16:44:17.390Z,13.77
2022-12-04T16:49:14.949Z,10.80
2022-12-04T16:54:14.106Z,10.70
2022-12-04T16:59:12.395Z,9.63
2022-12-04T17:04:10.665Z,7.70
2022-12-04T17:09:08.851Z,13.77
2022-12-04T17:14:07.615Z,10.50
2022-12-04T17:19:05.494Z,9.45
2022-12-04T17:24:03.005Z,10.02
2022-12-04T17:29:00.412Z,13.10
2022-12-04T17:33:57.990Z,12.55
2022-12-04T17:38:57.135Z,15.35
2022-12-04T17:43:54.430Z,13.87
2022-12-04T17:48:52.165Z,12.32
2022-12-04T17:53:50.028Z,12.68
2022-12-04T17:58:48.880Z,13.57
2022-12-04T18:04:02.102Z,15.65
2022-12-04T18:09:00.348Z,10.38
2022-12-04T18:14:00.476Z,9.93
2022-12-04T18:19:02.719Z,16.15
2022-12-04T18:24:03.080Z,11.00
2022-12-04T18:29:01.089Z,16.40
2022-12-04T18:33:58.590Z,13.93
2022-12-04T18:38:59.819Z,10.70
2022-12-04T18:43:57.771Z,10.80
2022-12-04T18:49:00.461Z,15.15
2022-12-04T18:54:01.302Z,15.60
2022-12-04T18:59:05.062Z,15.30
2022-12-04T19:04:05.317Z,14.75
2022-12-04T19:09:06.283Z,14.75
2022-12-04T19:14:10.289Z,15.80
2022-12-04T19:19:13.326Z,12.00
2022-12-04T19:24:11.456Z,12.30
2022-12-04T19:29:13.876Z,12.03
2022-12-04T19:34:12.112Z,11.63
2022-12-04T19:39:10.350Z,11.63
2022-12-04T19:44:26.384Z,17.83
2022-12-04T19:49:27.020Z,13.57
2022-12-04T19:54:25.764Z,13.57
2022-12-04T19:59:24.042Z,12.30
2022-12-04T20:04:21.424Z,13.10
2022-12-04T20:09:21.284Z,10.35
2022-12-04T20:14:19.885Z,12.75
2022-12-04T20:19:19.399Z,13.77
2022-12-04T20:24:17.842Z,9.02
2022-12-04T20:29:16.796Z,8.70
2022-12-04T20:34:17.574Z,8.05
2022-12-04T20:39:17.631Z,12.85
2022-12-04T20:44:17.572Z,13.63
2022-12-04T20:49:22.501Z,11.20
2022-12-04T20:54:21.936Z,9.60
2022-12-04T20:59:22.041Z,9.77
2022-12-04T21:04:20.148Z,10.73
2022-12-04T21:09:21.450Z,12.07
2022-12-04T21:14:43.603Z,8.35
2022-12-04T21:19:41.170Z,8.23
2022-12-04T21:24:39.394Z,9.20
2022-12-04T21:29:38.011Z,10.07
2022-12-04T21:34:35.811Z,7.40
2022-12-04T21:39:33.238Z,8.13
2022-12-04T21:44:30.586Z,11.07
2022-12-04T21:49:28.258Z,7.90
2022-12-04T21:54:29.609Z,9.60
2022-12-04T21:59:27.152Z,9.80
2022-12-04T22:04:24.764Z,5.57
2022-12-04T22:09:22.354Z,11.02
2022-12-04T22:14:19.941Z,10.05
2022-12-04T22:19:17.406Z,8.50
2022-12-04T22:24:15.205Z,7.60
2022-12-04T22:29:48.162Z,8.52
2022-12-04T22:34:31.247Z,8.10
2022-12-04T22:39:28.458Z,7.88
2022-12-04T22:44:25.779Z,6.38
2022-12-04T22:49:23.024Z,8.25
2022-12-04T22:54:20.855Z,5.53
2022-12-04T22:59:18.171Z,8.02
2022-12-04T23:04:16.011Z,5.18
2022-12-04T23:09:16.937Z,4.60
2022-12-04T23:14:15.583Z,5.15
2022-12-04T23:19:15.864Z,18.35
2022-12-04T23:24:13.589Z,7.47
2022-12-04T23:29:36.956Z,7.50
2022-12-04T23:34:28.916Z,6.00
2022-12-04T23:39:26.527Z,9.90
2022-12-04T23:44:25.106Z,5.82
2022-12-04T23:49:22.337Z,7.80
2022-12-04T23:54:19.547Z,6.03
2022-12-04T23:59:16.856Z,6.93
